sensor_id;sensor_type;location;lat;lon;timestamp;P1;durP1;ratioP1;P2;durP2;ratioP2
71777;SDS011;59609;52.430;4.668;2023-01-28T00:00:29;2.90;;;1.90;;
71777;SDS011;59609;52.430;4.668;2023-01-28T00:02:54;3.30;;;1.80;;
71777;SDS011;59609;52.430;4.668;2023-01-28T00:05:19;2.70;;;1.60;;
71777;SDS011;59609;52.430;4.668;2023-01-28T00:07:48;2.65;;;1.73;;
71777;SDS011;59609;52.430;4.668;2023-01-28T00:10:13;3.40;;;1.80;;
71777;SDS011;59609;52.430;4.668;2023-01-28T00:12:38;3.25;;;1.58;;
71777;SDS011;59609;52.430;4.668;2023-01-28T00:15:04;3.53;;;1.33;;
71777;SDS011;59609;52.430;4.668;2023-01-28T00:17:29;3.33;;;1.85;;
71777;SDS011;59609;52.430;4.668;2023-01-28T00:19:55;2.70;;;1.70;;
71777;SDS011;59609;52.430;4.668;2023-01-28T00:22:20;5.50;;;1.77;;
71777;SDS011;59609;52.430;4.668;2023-01-28T00:24:45;3.50;;;1.75;;
71777;SDS011;59609;52.430;4.668;2023-01-28T00:27:11;3.47;;;1.73;;
71777;SDS011;59609;52.430;4.668;2023-01-28T00:29:36;3.13;;;1.55;;
71777;SDS011;59609;52.430;4.668;2023-01-28T00:32:02;3.53;;;1.67;;
71777;SDS011;59609;52.430;4.668;2023-01-28T00:34:27;3.88;;;1.98;;
71777;SDS011;59609;52.430;4.668;2023-01-28T00:36:53;3.07;;;1.43;;
71777;SDS011;59609;52.430;4.668;2023-01-28T00:39:25;2.60;;;1.45;;
71777;SDS011;59609;52.430;4.668;2023-01-28T00:41:50;4.50;;;2.08;;
71777;SDS011;59609;52.430;4.668;2023-01-28T00:44:16;3.17;;;1.95;;
71777;SDS011;59609;52.430;4.668;2023-01-28T00:46:41;3.55;;;1.83;;
71777;SDS011;59609;52.430;4.668;2023-01-28T00:49:07;3.70;;;1.87;;
71777;SDS011;59609;52.430;4.668;2023-01-28T00:51:32;5.80;;;2.83;;
71777;SDS011;59609;52.430;4.668;2023-01-28T00:53:57;3.80;;;2.15;;
71777;SDS011;59609;52.430;4.668;2023-01-28T00:56:23;3.40;;;2.20;;
71777;SDS011;59609;52.430;4.668;2023-01-28T00:58:48;2.45;;;2.10;;
71777;SDS011;59609;52.430;4.668;2023-01-28T01:03:42;4.53;;;2.10;;
71777;SDS011;59609;52.430;4.668;2023-01-28T01:06:07;3.25;;;2.05;;
71777;SDS011;59609;52.430;4.668;2023-01-28T01:08:33;3.35;;;2.28;;
71777;SDS011;59609;52.430;4.668;2023-01-28T01:11:04;3.45;;;1.92;;
71777;SDS011;59609;52.430;4.668;2023-01-28T01:13:30;3.50;;;2.00;;
71777;SDS011;59609;52.430;4.668;2023-01-28T01:16:03;3.22;;;2.20;;
71777;SDS011;59609;52.430;4.668;2023-01-28T01:18:29;3.67;;;2.40;;
71777;SDS011;59609;52.430;4.668;2023-01-28T01:20:54;3.13;;;2.00;;
71777;SDS011;59609;52.430;4.668;2023-01-28T01:23:26;5.32;;;2.20;;
71777;SDS011;59609;52.430;4.668;2023-01-28T01:25:51;3.30;;;2.10;;
71777;SDS011;59609;52.430;4.668;2023-01-28T01:28:17;4.45;;;2.47;;
71777;SDS011;59609;52.430;4.668;2023-01-28T01:30:42;3.95;;;2.40;;
71777;SDS011;59609;52.430;4.668;2023-01-28T01:33:07;4.33;;;2.30;;
71777;SDS011;59609;52.430;4.668;2023-01-28T01:35:32;3.60;;;2.10;;
71777;SDS011;59609;52.430;4.668;2023-01-28T01:37:58;3.53;;;2.23;;
71777;SDS011;59609;52.430;4.668;2023-01-28T01:40:23;3.97;;;2.13;;
71777;SDS011;59609;52.430;4.668;2023-01-28T01:42:48;4.63;;;2.50;;
71777;SDS011;59609;52.430;4.668;2023-01-28T01:45:14;3.40;;;2.27;;
71777;SDS011;59609;52.430;4.668;2023-01-28T01:50:12;5.00;;;2.33;;
71777;SDS011;59609;52.430;4.668;2023-01-28T01:52:40;4.90;;;2.58;;
71777;SDS011;59609;52.430;4.668;2023-01-28T01:55:08;3.88;;;2.42;;
71777;SDS011;59609;52.430;4.668;2023-01-28T01:57:35;3.50;;;2.25;;
71777;SDS011;59609;52.430;4.668;2023-01-28T02:00:00;5.18;;;2.55;;
71777;SDS011;59609;52.430;4.668;2023-01-28T02:02:31;3.90;;;2.40;;
71777;SDS011;59609;52.430;4.668;2023-01-28T02:04:58;2.70;;;2.00;;
71777;SDS011;59609;52.430;4.668;2023-01-28T02:07:23;4.60;;;2.40;;
71777;SDS011;59609;52.430;4.668;2023-01-28T02:09:48;3.67;;;2.10;;
71777;SDS011;59609;52.430;4.668;2023-01-28T02:12:15;3.90;;;2.23;;
71777;SDS011;59609;52.430;4.668;2023-01-28T02:14:43;4.05;;;2.20;;
71777;SDS011;59609;52.430;4.668;2023-01-28T02:17:09;3.60;;;2.15;;
71777;SDS011;59609;52.430;4.668;2023-01-28T02:19:53;2.80;;;1.92;;
71777;SDS011;59609;52.430;4.668;2023-01-28T02:22:25;3.88;;;2.10;;
71777;SDS011;59609;52.430;4.668;2023-01-28T02:30:22;3.85;;;1.83;;
71777;SDS011;59609;52.430;4.668;2023-01-28T02:32:52;3.55;;;2.17;;
71777;SDS011;59609;52.430;4.668;2023-01-28T02:35:21;4.85;;;2.40;;
71777;SDS011;59609;52.430;4.668;2023-01-28T02:37:53;4.32;;;2.00;;
71777;SDS011;59609;52.430;4.668;2023-01-28T02:40:21;5.00;;;2.08;;
71777;SDS011;59609;52.430;4.668;2023-01-28T02:42:48;5.13;;;2.03;;
71777;SDS011;59609;52.430;4.668;2023-01-28T02:45:15;3.30;;;2.17;;
71777;SDS011;59609;52.430;4.668;2023-01-28T02:47:41;2.33;;;1.73;;
71777;SDS011;59609;52.430;4.668;2023-01-28T02:50:21;5.05;;;2.38;;
71777;SDS011;59609;52.430;4.668;2023-01-28T02:52:55;3.70;;;1.90;;
71777;SDS011;59609;52.430;4.668;2023-01-28T02:55:52;3.53;;;2.17;;
71777;SDS011;59609;52.430;4.668;2023-01-28T03:00:54;2.97;;;2.10;;
71777;SDS011;59609;52.430;4.668;2023-01-28T03:03:28;4.05;;;2.30;;
71777;SDS011;59609;52.430;4.668;2023-01-28T03:05:57;4.88;;;2.33;;
71777;SDS011;59609;52.430;4.668;2023-01-28T03:08:38;3.85;;;2.10;;
71777;SDS011;59609;52.430;4.668;2023-01-28T03:11:22;4.57;;;2.22;;
71777;SDS011;59609;52.430;4.668;2023-01-28T03:14:06;3.28;;;2.10;;
71777;SDS011;59609;52.430;4.668;2023-01-28T03:16:50;5.55;;;2.10;;
71777;SDS011;59609;52.430;4.668;2023-01-28T03:19:36;2.50;;;1.80;;
71777;SDS011;59609;52.430;4.668;2023-01-28T03:22:20;4.00;;;1.90;;
71777;SDS011;59609;52.430;4.668;2023-01-28T03:25:04;3.38;;;1.73;;
71777;SDS011;59609;52.430;4.668;2023-01-28T03:27:52;2.92;;;1.75;;
71777;SDS011;59609;52.430;4.668;2023-01-28T03:30:41;2.55;;;1.67;;
71777;SDS011;59609;52.430;4.668;2023-01-28T03:33:26;3.05;;;2.08;;
71777;SDS011;59609;52.430;4.668;2023-01-28T03:36:10;3.10;;;2.00;;
71777;SDS011;59609;52.430;4.668;2023-01-28T03:38:54;2.35;;;1.60;;
71777;SDS011;59609;52.430;4.668;2023-01-28T03:41:21;4.45;;;1.90;;
71777;SDS011;59609;52.430;4.668;2023-01-28T03:43:47;2.53;;;1.70;;
71777;SDS011;59609;52.430;4.668;2023-01-28T03:46:12;2.20;;;1.65;;
71777;SDS011;59609;52.430;4.668;2023-01-28T03:48:37;2.37;;;1.80;;
71777;SDS011;59609;52.430;4.668;2023-01-28T03:51:03;3.37;;;2.20;;
71777;SDS011;59609;52.430;4.668;2023-01-28T03:53:28;3.45;;;1.92;;
71777;SDS011;59609;52.430;4.668;2023-01-28T03:55:53;3.70;;;1.90;;
71777;SDS011;59609;52.430;4.668;2023-01-28T03:58:20;4.05;;;2.10;;
71777;SDS011;59609;52.430;4.668;2023-01-28T04:00:47;2.90;;;1.98;;
71777;SDS011;59609;52.430;4.668;2023-01-28T04:03:16;6.80;;;2.37;;
71777;SDS011;59609;52.430;4.668;2023-01-28T04:05:46;2.47;;;1.73;;
71777;SDS011;59609;52.430;4.668;2023-01-28T04:08:11;1.80;;;1.50;;
71777;SDS011;59609;52.430;4.668;2023-01-28T04:10:39;2.58;;;1.60;;
71777;SDS011;59609;52.430;4.668;2023-01-28T04:13:05;2.90;;;1.73;;
71777;SDS011;59609;52.430;4.668;2023-01-28T04:15:30;4.70;;;2.03;;
71777;SDS011;59609;52.430;4.668;2023-01-28T04:17:55;2.90;;;1.90;;
71777;SDS011;59609;52.430;4.668;2023-01-28T04:20:21;2.63;;;1.80;;
71777;SDS011;59609;52.430;4.668;2023-01-28T04:22:46;2.50;;;1.90;;
71777;SDS011;59609;52.430;4.668;2023-01-28T04:25:11;5.10;;;2.08;;
71777;SDS011;59609;52.430;4.668;2023-01-28T04:27:36;2.73;;;1.93;;
71777;SDS011;59609;52.430;4.668;2023-01-28T04:30:02;3.83;;;1.80;;
71777;SDS011;59609;52.430;4.668;2023-01-28T04:32:27;3.23;;;2.00;;
71777;SDS011;59609;52.430;4.668;2023-01-28T04:34:52;4.87;;;2.37;;
71777;SDS011;59609;52.430;4.668;2023-01-28T04:37:17;3.37;;;1.90;;
71777;SDS011;59609;52.430;4.668;2023-01-28T04:39:43;5.50;;;2.17;;
71777;SDS011;59609;52.430;4.668;2023-01-28T04:42:08;2.53;;;1.97;;
71777;SDS011;59609;52.430;4.668;2023-01-28T04:44:33;2.90;;;2.03;;
71777;SDS011;59609;52.430;4.668;2023-01-28T04:46:58;5.13;;;2.10;;
71777;SDS011;59609;52.430;4.668;2023-01-28T04:49:23;3.20;;;2.07;;
71777;SDS011;59609;52.430;4.668;2023-01-28T04:51:49;4.23;;;1.80;;
71777;SDS011;59609;52.430;4.668;2023-01-28T04:54:14;3.33;;;2.13;;
71777;SDS011;59609;52.430;4.668;2023-01-28T04:56:39;3.87;;;2.10;;
71777;SDS011;59609;52.430;4.668;2023-01-28T04:59:04;2.70;;;2.10;;
71777;SDS011;59609;52.430;4.668;2023-01-28T05:01:29;4.40;;;2.10;;
71777;SDS011;59609;52.430;4.668;2023-01-28T05:03:55;3.23;;;1.80;;
71777;SDS011;59609;52.430;4.668;2023-01-28T05:06:20;3.93;;;2.23;;
71777;SDS011;59609;52.430;4.668;2023-01-28T05:08:45;3.15;;;1.67;;
71777;SDS011;59609;52.430;4.668;2023-01-28T05:11:11;3.50;;;2.00;;
71777;SDS011;59609;52.430;4.668;2023-01-28T05:13:37;2.38;;;1.88;;
71777;SDS011;59609;52.430;4.668;2023-01-28T05:16:02;3.23;;;1.87;;
71777;SDS011;59609;52.430;4.668;2023-01-28T05:18:27;2.97;;;2.13;;
71777;SDS011;59609;52.430;4.668;2023-01-28T05:20:52;2.90;;;1.87;;
71777;SDS011;59609;52.430;4.668;2023-01-28T05:23:18;3.90;;;1.97;;
71777;SDS011;59609;52.430;4.668;2023-01-28T05:25:43;2.87;;;1.90;;
71777;SDS011;59609;52.430;4.668;2023-01-28T05:28:09;2.70;;;1.88;;
71777;SDS011;59609;52.430;4.668;2023-01-28T05:30:36;3.03;;;1.90;;
71777;SDS011;59609;52.430;4.668;2023-01-28T05:33:01;3.97;;;1.90;;
71777;SDS011;59609;52.430;4.668;2023-01-28T05:35:26;2.67;;;1.90;;
71777;SDS011;59609;52.430;4.668;2023-01-28T05:37:52;2.20;;;1.70;;
71777;SDS011;59609;52.430;4.668;2023-01-28T05:40:17;3.28;;;1.77;;
71777;SDS011;59609;52.430;4.668;2023-01-28T05:42:42;2.87;;;1.90;;
71777;SDS011;59609;52.430;4.668;2023-01-28T05:45:07;7.30;;;2.13;;
71777;SDS011;59609;52.430;4.668;2023-01-28T05:47:33;2.75;;;1.77;;
71777;SDS011;59609;52.430;4.668;2023-01-28T05:49:58;3.83;;;2.17;;
71777;SDS011;59609;52.430;4.668;2023-01-28T05:52:23;4.10;;;2.07;;
71777;SDS011;59609;52.430;4.668;2023-01-28T05:54:49;4.87;;;2.00;;
71777;SDS011;59609;52.430;4.668;2023-01-28T05:57:14;3.87;;;2.13;;
71777;SDS011;59609;52.430;4.668;2023-01-28T05:59:39;4.93;;;2.20;;
71777;SDS011;59609;52.430;4.668;2023-01-28T06:02:04;2.63;;;1.80;;
71777;SDS011;59609;52.430;4.668;2023-01-28T06:04:29;3.17;;;1.67;;
71777;SDS011;59609;52.430;4.668;2023-01-28T06:06:55;5.73;;;2.43;;
71777;SDS011;59609;52.430;4.668;2023-01-28T06:09:20;3.00;;;1.90;;
71777;SDS011;59609;52.430;4.668;2023-01-28T06:11:45;2.67;;;2.23;;
71777;SDS011;59609;52.430;4.668;2023-01-28T06:14:10;3.10;;;2.00;;
71777;SDS011;59609;52.430;4.668;2023-01-28T06:16:36;3.03;;;2.07;;
71777;SDS011;59609;52.430;4.668;2023-01-28T06:19:01;2.40;;;1.87;;
71777;SDS011;59609;52.430;4.668;2023-01-28T06:21:26;3.63;;;2.07;;
71777;SDS011;59609;52.430;4.668;2023-01-28T06:23:51;3.43;;;2.10;;
71777;SDS011;59609;52.430;4.668;2023-01-28T06:26:16;2.67;;;1.90;;
71777;SDS011;59609;52.430;4.668;2023-01-28T06:28:42;4.10;;;2.40;;
71777;SDS011;59609;52.430;4.668;2023-01-28T06:31:07;3.20;;;1.73;;
71777;SDS011;59609;52.430;4.668;2023-01-28T06:33:32;3.00;;;2.20;;
71777;SDS011;59609;52.430;4.668;2023-01-28T06:35:57;3.00;;;1.87;;
71777;SDS011;59609;52.430;4.668;2023-01-28T06:38:23;4.30;;;2.23;;
71777;SDS011;59609;52.430;4.668;2023-01-28T06:40:51;2.43;;;1.63;;
71777;SDS011;59609;52.430;4.668;2023-01-28T06:43:16;3.38;;;1.95;;
71777;SDS011;59609;52.430;4.668;2023-01-28T06:45:42;5.70;;;2.20;;
71777;SDS011;59609;52.430;4.668;2023-01-28T06:48:07;3.27;;;2.07;;
71777;SDS011;59609;52.430;4.668;2023-01-28T06:50:32;3.83;;;1.97;;
71777;SDS011;59609;52.430;4.668;2023-01-28T06:52:57;3.13;;;1.83;;
71777;SDS011;59609;52.430;4.668;2023-01-28T06:55:23;3.43;;;1.93;;
71777;SDS011;59609;52.430;4.668;2023-01-28T06:57:48;4.13;;;2.10;;
71777;SDS011;59609;52.430;4.668;2023-01-28T07:00:13;5.40;;;1.93;;
71777;SDS011;59609;52.430;4.668;2023-01-28T07:02:40;3.42;;;2.22;;
71777;SDS011;59609;52.430;4.668;2023-01-28T07:05:06;3.17;;;2.00;;
71777;SDS011;59609;52.430;4.668;2023-01-28T07:07:31;4.38;;;2.10;;
71777;SDS011;59609;52.430;4.668;2023-01-28T07:09:57;3.50;;;2.05;;
71777;SDS011;59609;52.430;4.668;2023-01-28T07:12:22;2.80;;;1.95;;
71777;SDS011;59609;52.430;4.668;2023-01-28T07:14:47;5.47;;;2.30;;
71777;SDS011;59609;52.430;4.668;2023-01-28T07:17:13;3.33;;;2.13;;
71777;SDS011;59609;52.430;4.668;2023-01-28T07:19:38;3.13;;;1.87;;
71777;SDS011;59609;52.430;4.668;2023-01-28T07:22:03;3.53;;;2.07;;
71777;SDS011;59609;52.430;4.668;2023-01-28T07:24:28;3.37;;;2.20;;
71777;SDS011;59609;52.430;4.668;2023-01-28T07:26:54;3.88;;;2.10;;
71777;SDS011;59609;52.430;4.668;2023-01-28T07:29:19;3.87;;;2.43;;
71777;SDS011;59609;52.430;4.668;2023-01-28T07:31:44;4.90;;;2.25;;
71777;SDS011;59609;52.430;4.668;2023-01-28T07:34:09;4.37;;;2.10;;
71777;SDS011;59609;52.430;4.668;2023-01-28T07:36:35;3.50;;;2.10;;
71777;SDS011;59609;52.430;4.668;2023-01-28T07:39:00;3.80;;;2.30;;
71777;SDS011;59609;52.430;4.668;2023-01-28T07:41:25;4.07;;;2.23;;
71777;SDS011;59609;52.430;4.668;2023-01-28T07:43:51;3.58;;;2.30;;
71777;SDS011;59609;52.430;4.668;2023-01-28T07:46:17;5.25;;;2.60;;
71777;SDS011;59609;52.430;4.668;2023-01-28T07:48:42;4.97;;;2.42;;
71777;SDS011;59609;52.430;4.668;2023-01-28T07:51:07;4.03;;;2.57;;
71777;SDS011;59609;52.430;4.668;2023-01-28T07:53:32;4.70;;;2.70;;
71777;SDS011;59609;52.430;4.668;2023-01-28T07:55:59;4.45;;;2.50;;
71777;SDS011;59609;52.430;4.668;2023-01-28T07:58:24;4.43;;;2.28;;
71777;SDS011;59609;52.430;4.668;2023-01-28T08:00:50;4.47;;;2.60;;
71777;SDS011;59609;52.430;4.668;2023-01-28T08:03:15;6.47;;;2.70;;
71777;SDS011;59609;52.430;4.668;2023-01-28T08:05:44;5.30;;;2.77;;
71777;SDS011;59609;52.430;4.668;2023-01-28T08:08:10;5.88;;;3.05;;
71777;SDS011;59609;52.430;4.668;2023-01-28T08:10:35;7.10;;;2.85;;
71777;SDS011;59609;52.430;4.668;2023-01-28T08:13:01;5.10;;;2.83;;
71777;SDS011;59609;52.430;4.668;2023-01-28T08:15:27;5.60;;;2.87;;
71777;SDS011;59609;52.430;4.668;2023-01-28T08:17:53;8.23;;;2.92;;
71777;SDS011;59609;52.430;4.668;2023-01-28T08:20:19;5.13;;;2.80;;
71777;SDS011;59609;52.430;4.668;2023-01-28T08:22:44;8.93;;;3.53;;
71777;SDS011;59609;52.430;4.668;2023-01-28T08:25:09;7.53;;;3.10;;
71777;SDS011;59609;52.430;4.668;2023-01-28T08:27:34;7.00;;;3.67;;
71777;SDS011;59609;52.430;4.668;2023-01-28T08:30:00;7.20;;;3.40;;
71777;SDS011;59609;52.430;4.668;2023-01-28T08:32:25;6.20;;;2.73;;
71777;SDS011;59609;52.430;4.668;2023-01-28T08:34:50;7.10;;;3.27;;
71777;SDS011;59609;52.430;4.668;2023-01-28T08:37:15;7.50;;;3.97;;
71777;SDS011;59609;52.430;4.668;2023-01-28T08:39:41;8.53;;;3.17;;
71777;SDS011;59609;52.430;4.668;2023-01-28T08:42:07;7.50;;;3.40;;
71777;SDS011;59609;52.430;4.668;2023-01-28T08:44:32;8.77;;;3.80;;
71777;SDS011;59609;52.430;4.668;2023-01-28T08:46:57;7.97;;;3.85;;
71777;SDS011;59609;52.430;4.668;2023-01-28T08:49:22;7.57;;;3.40;;
71777;SDS011;59609;52.430;4.668;2023-01-28T08:51:48;6.78;;;3.38;;
71777;SDS011;59609;52.430;4.668;2023-01-28T08:54:13;7.17;;;3.77;;
71777;SDS011;59609;52.430;4.668;2023-01-28T08:56:38;6.28;;;3.75;;
71777;SDS011;59609;52.430;4.668;2023-01-28T08:59:06;7.22;;;3.63;;
71777;SDS011;59609;52.430;4.668;2023-01-28T09:01:32;7.23;;;3.17;;
71777;SDS011;59609;52.430;4.668;2023-01-28T09:03:58;7.70;;;3.50;;
71777;SDS011;59609;52.430;4.668;2023-01-28T09:06:23;6.88;;;2.75;;
71777;SDS011;59609;52.430;4.668;2023-01-28T09:08:48;7.00;;;3.30;;
71777;SDS011;59609;52.430;4.668;2023-01-28T09:11:14;6.43;;;3.30;;
71777;SDS011;59609;52.430;4.668;2023-01-28T09:13:39;6.47;;;3.17;;
71777;SDS011;59609;52.430;4.668;2023-01-28T09:16:04;5.50;;;2.60;;
71777;SDS011;59609;52.430;4.668;2023-01-28T09:18:30;5.28;;;2.70;;
71777;SDS011;59609;52.430;4.668;2023-01-28T09:20:55;5.80;;;2.70;;
71777;SDS011;59609;52.430;4.668;2023-01-28T09:23:20;4.73;;;2.87;;
71777;SDS011;59609;52.430;4.668;2023-01-28T09:25:46;4.78;;;2.92;;
71777;SDS011;59609;52.430;4.668;2023-01-28T09:28:11;5.63;;;3.40;;
71777;SDS011;59609;52.430;4.668;2023-01-28T09:30:36;4.23;;;3.00;;
71777;SDS011;59609;52.430;4.668;2023-01-28T09:33:03;4.25;;;2.75;;
71777;SDS011;59609;52.430;4.668;2023-01-28T09:35:28;4.27;;;2.50;;
71777;SDS011;59609;52.430;4.668;2023-01-28T09:37:57;4.33;;;2.87;;
71777;SDS011;59609;52.430;4.668;2023-01-28T09:40:33;4.35;;;2.75;;
71777;SDS011;59609;52.430;4.668;2023-01-28T09:48:28;5.90;;;3.10;;
71777;SDS011;59609;52.430;4.668;2023-01-28T09:50:57;7.25;;;4.15;;
71777;SDS011;59609;52.430;4.668;2023-01-28T09:53:25;7.68;;;4.20;;
71777;SDS011;59609;52.430;4.668;2023-01-28T09:55:54;10.40;;;3.95;;
71777;SDS011;59609;52.430;4.668;2023-01-28T09:58:20;4.43;;;3.35;;
71777;SDS011;59609;52.430;4.668;2023-01-28T10:03:35;5.70;;;4.10;;
71777;SDS011;59609;52.430;4.668;2023-01-28T10:14:11;5.60;;;3.03;;
71777;SDS011;59609;52.430;4.668;2023-01-28T10:16:39;3.63;;;2.70;;
71777;SDS011;59609;52.430;4.668;2023-01-28T10:19:07;6.47;;;2.80;;
71777;SDS011;59609;52.430;4.668;2023-01-28T10:21:36;5.05;;;2.42;;
71777;SDS011;59609;52.430;4.668;2023-01-28T10:24:07;4.05;;;3.20;;
71777;SDS011;59609;52.430;4.668;2023-01-28T10:26:35;6.38;;;2.53;;
71777;SDS011;59609;52.430;4.668;2023-01-28T10:29:04;4.32;;;2.22;;
71777;SDS011;59609;52.430;4.668;2023-01-28T10:31:32;4.38;;;2.80;;
71777;SDS011;59609;52.430;4.668;2023-01-28T10:33:59;4.63;;;2.90;;
71777;SDS011;59609;52.430;4.668;2023-01-28T10:36:24;5.80;;;2.63;;
71777;SDS011;59609;52.430;4.668;2023-01-28T10:38:51;4.40;;;3.07;;
71777;SDS011;59609;52.430;4.668;2023-01-28T10:41:18;5.03;;;3.47;;
71777;SDS011;59609;52.430;4.668;2023-01-28T10:43:44;8.45;;;2.97;;
71777;SDS011;59609;52.430;4.668;2023-01-28T10:46:21;4.65;;;2.78;;
71777;SDS011;59609;52.430;4.668;2023-01-28T10:51:12;9.80;;;3.80;;
71777;SDS011;59609;52.430;4.668;2023-01-28T10:53:43;5.93;;;3.42;;
71777;SDS011;59609;52.430;4.668;2023-01-28T10:56:16;4.07;;;2.75;;
71777;SDS011;59609;52.430;4.668;2023-01-28T10:58:47;5.65;;;3.05;;
71777;SDS011;59609;52.430;4.668;2023-01-28T11:01:14;6.07;;;2.92;;
71777;SDS011;59609;52.430;4.668;2023-01-28T11:03:39;5.63;;;3.30;;
71777;SDS011;59609;52.430;4.668;2023-01-28T11:06:05;6.35;;;3.33;;
71777;SDS011;59609;52.430;4.668;2023-01-28T11:08:30;6.05;;;3.10;;
71777;SDS011;59609;52.430;4.668;2023-01-28T11:10:56;6.70;;;3.75;;
71777;SDS011;59609;52.430;4.668;2023-01-28T11:18:19;6.00;;;3.30;;
71777;SDS011;59609;52.430;4.668;2023-01-28T11:20:49;10.82;;;2.83;;
71777;SDS011;59609;52.430;4.668;2023-01-28T11:23:20;6.75;;;2.90;;
71777;SDS011;59609;52.430;4.668;2023-01-28T11:25:46;4.93;;;2.80;;
71777;SDS011;59609;52.430;4.668;2023-01-28T11:28:16;8.50;;;3.70;;
71777;SDS011;59609;52.430;4.668;2023-01-28T11:30:42;5.60;;;3.20;;
71777;SDS011;59609;52.430;4.668;2023-01-28T11:33:15;5.37;;;2.20;;
71777;SDS011;59609;52.430;4.668;2023-01-28T11:35:41;6.82;;;3.70;;
71777;SDS011;59609;52.430;4.668;2023-01-28T11:38:16;9.43;;;3.47;;
71777;SDS011;59609;52.430;4.668;2023-01-28T11:40:48;6.35;;;3.35;;
71777;SDS011;59609;52.430;4.668;2023-01-28T11:43:13;6.95;;;3.00;;
71777;SDS011;59609;52.430;4.668;2023-01-28T11:45:41;6.70;;;2.93;;
71777;SDS011;59609;52.430;4.668;2023-01-28T11:48:17;8.57;;;2.35;;
71777;SDS011;59609;52.430;4.668;2023-01-28T11:53:22;6.40;;;2.97;;
71777;SDS011;59609;52.430;4.668;2023-01-28T11:58:26;5.05;;;2.63;;
71777;SDS011;59609;52.430;4.668;2023-01-28T12:01:03;6.30;;;2.58;;
71777;SDS011;59609;52.430;4.668;2023-01-28T12:06:21;7.68;;;2.58;;
71777;SDS011;59609;52.430;4.668;2023-01-28T12:11:41;6.07;;;2.42;;
71777;SDS011;59609;52.430;4.668;2023-01-28T12:14:33;8.20;;;2.47;;
71777;SDS011;59609;52.430;4.668;2023-01-28T12:23:09;4.43;;;1.35;;
71777;SDS011;59609;52.430;4.668;2023-01-28T12:25:06;5.63;;;1.52;;
71777;SDS011;59609;52.430;4.668;2023-01-28T12:33:34;3.72;;;1.88;;
71777;SDS011;59609;52.430;4.668;2023-01-28T12:40:43;4.82;;;2.03;;
71777;SDS011;59609;52.430;4.668;2023-01-28T12:43:10;3.25;;;1.80;;
71777;SDS011;59609;52.430;4.668;2023-01-28T12:45:39;8.90;;;2.00;;
71777;SDS011;59609;52.430;4.668;2023-01-28T12:48:10;6.78;;;2.05;;
71777;SDS011;59609;52.430;4.668;2023-01-28T12:50:41;8.25;;;2.05;;
71777;SDS011;59609;52.430;4.668;2023-01-28T12:55:44;7.63;;;2.08;;
71777;SDS011;59609;52.430;4.668;2023-01-28T12:58:20;6.55;;;2.22;;
71777;SDS011;59609;52.430;4.668;2023-01-28T13:00:47;4.70;;;2.63;;
71777;SDS011;59609;52.430;4.668;2023-01-28T13:05:42;4.53;;;1.90;;
71777;SDS011;59609;52.430;4.668;2023-01-28T13:08:19;2.92;;;1.95;;
71777;SDS011;59609;52.430;4.668;2023-01-28T13:10:47;4.70;;;2.05;;
71777;SDS011;59609;52.430;4.668;2023-01-28T13:15:47;4.80;;;2.20;;
71777;SDS011;59609;52.430;4.668;2023-01-28T13:20:56;3.65;;;1.98;;
71777;SDS011;59609;52.430;4.668;2023-01-28T13:23:23;6.07;;;2.30;;
71777;SDS011;59609;52.430;4.668;2023-01-28T13:25:50;4.28;;;2.03;;
71777;SDS011;59609;52.430;4.668;2023-01-28T13:28:50;7.28;;;1.92;;
71777;SDS011;59609;52.430;4.668;2023-01-28T13:31:11;6.18;;;1.42;;
71777;SDS011;59609;52.430;4.668;2023-01-28T13:33:42;6.10;;;1.42;;
71777;SDS011;59609;52.430;4.668;2023-01-28T13:38:39;5.13;;;1.30;;
71777;SDS011;59609;52.430;4.668;2023-01-28T13:41:04;1.83;;;1.13;;
71777;SDS011;59609;52.430;4.668;2023-01-28T13:46:03;1.17;;;1.02;;
71777;SDS011;59609;52.430;4.668;2023-01-28T13:50:56;8.80;;;1.65;;
71777;SDS011;59609;52.430;4.668;2023-01-28T13:53:35;1.35;;;1.08;;
71777;SDS011;59609;52.430;4.668;2023-01-28T13:56:05;1.70;;;1.38;;
71777;SDS011;59609;52.430;4.668;2023-01-28T14:01:27;1.50;;;0.90;;
71777;SDS011;59609;52.430;4.668;2023-01-28T14:14:27;1.65;;;1.23;;
71777;SDS011;59609;52.430;4.668;2023-01-28T14:16:55;3.05;;;1.27;;
71777;SDS011;59609;52.430;4.668;2023-01-28T14:19:26;2.53;;;1.00;;
71777;SDS011;59609;52.430;4.668;2023-01-28T14:21:52;4.10;;;1.20;;
71777;SDS011;59609;52.430;4.668;2023-01-28T14:24:17;3.57;;;1.27;;
71777;SDS011;59609;52.430;4.668;2023-01-28T14:29:14;3.15;;;1.23;;
71777;SDS011;59609;52.430;4.668;2023-01-28T14:31:41;2.95;;;1.50;;
71777;SDS011;59609;52.430;4.668;2023-01-28T14:34:22;2.03;;;1.00;;
71777;SDS011;59609;52.430;4.668;2023-01-28T14:36:48;1.10;;;1.00;;
71777;SDS011;59609;52.430;4.668;2023-01-28T14:39:22;2.35;;;1.40;;
71777;SDS011;59609;52.430;4.668;2023-01-28T14:44:27;1.10;;;1.00;;
71777;SDS011;59609;52.430;4.668;2023-01-28T14:46:56;3.10;;;1.52;;
71777;SDS011;59609;52.430;4.668;2023-01-28T14:57:12;2.75;;;1.48;;
71777;SDS011;59609;52.430;4.668;2023-01-28T14:59:53;4.90;;;1.70;;
71777;SDS011;59609;52.430;4.668;2023-01-28T15:02:20;2.20;;;1.50;;
71777;SDS011;59609;52.430;4.668;2023-01-28T15:04:46;3.28;;;1.65;;
71777;SDS011;59609;52.430;4.668;2023-01-28T15:07:15;3.72;;;1.70;;
71777;SDS011;59609;52.430;4.668;2023-01-28T15:09:41;3.67;;;1.48;;
71777;SDS011;59609;52.430;4.668;2023-01-28T15:12:07;5.05;;;1.92;;
71777;SDS011;59609;52.430;4.668;2023-01-28T15:14:33;3.08;;;1.80;;
71777;SDS011;59609;52.430;4.668;2023-01-28T15:16:58;3.95;;;2.15;;
71777;SDS011;59609;52.430;4.668;2023-01-28T15:19:28;5.15;;;2.05;;
71777;SDS011;59609;52.430;4.668;2023-01-28T15:21:57;4.07;;;2.03;;
71777;SDS011;59609;52.430;4.668;2023-01-28T15:24:23;5.85;;;2.72;;
71777;SDS011;59609;52.430;4.668;2023-01-28T15:26:49;4.30;;;2.05;;
71777;SDS011;59609;52.430;4.668;2023-01-28T15:29:24;3.60;;;2.25;;
71777;SDS011;59609;52.430;4.668;2023-01-28T15:31:50;4.32;;;2.50;;
71777;SDS011;59609;52.430;4.668;2023-01-28T15:34:17;4.15;;;1.60;;
71777;SDS011;59609;52.430;4.668;2023-01-28T15:36:43;8.77;;;3.58;;
71777;SDS011;59609;52.430;4.668;2023-01-28T15:39:12;4.03;;;2.13;;
71777;SDS011;59609;52.430;4.668;2023-01-28T15:41:38;5.18;;;2.15;;
71777;SDS011;59609;52.430;4.668;2023-01-28T15:44:04;4.47;;;1.98;;
71777;SDS011;59609;52.430;4.668;2023-01-28T15:46:30;5.43;;;2.47;;
71777;SDS011;59609;52.430;4.668;2023-01-28T15:48:57;4.63;;;2.20;;
71777;SDS011;59609;52.430;4.668;2023-01-28T15:51:23;4.93;;;2.13;;
71777;SDS011;59609;52.430;4.668;2023-01-28T15:53:51;2.53;;;1.73;;
71777;SDS011;59609;52.430;4.668;2023-01-28T15:56:22;3.20;;;2.13;;
71777;SDS011;59609;52.430;4.668;2023-01-28T15:58:48;2.17;;;1.70;;
71777;SDS011;59609;52.430;4.668;2023-01-28T16:01:14;6.20;;;2.20;;
71777;SDS011;59609;52.430;4.668;2023-01-28T16:03:40;6.03;;;2.63;;
71777;SDS011;59609;52.430;4.668;2023-01-28T16:06:10;4.18;;;2.08;;
71777;SDS011;59609;52.430;4.668;2023-01-28T16:11:01;3.53;;;2.20;;
71777;SDS011;59609;52.430;4.668;2023-01-28T16:13:27;4.15;;;2.40;;
71777;SDS011;59609;52.430;4.668;2023-01-28T16:15:55;5.32;;;2.30;;
71777;SDS011;59609;52.430;4.668;2023-01-28T16:21:28;3.42;;;2.22;;
71777;SDS011;59609;52.430;4.668;2023-01-28T16:24:01;3.78;;;2.60;;
71777;SDS011;59609;52.430;4.668;2023-01-28T16:26:30;3.75;;;2.30;;
71777;SDS011;59609;52.430;4.668;2023-01-28T16:28:56;3.20;;;2.30;;
71777;SDS011;59609;52.430;4.668;2023-01-28T16:31:21;6.45;;;2.65;;
71777;SDS011;59609;52.430;4.668;2023-01-28T16:33:47;5.50;;;2.88;;
71777;SDS011;59609;52.430;4.668;2023-01-28T16:36:13;4.30;;;2.60;;
71777;SDS011;59609;52.430;4.668;2023-01-28T16:38:38;4.55;;;1.92;;
71777;SDS011;59609;52.430;4.668;2023-01-28T16:41:05;5.60;;;2.13;;
71777;SDS011;59609;52.430;4.668;2023-01-28T16:43:35;3.10;;;1.88;;